Hauptseite
METAR-TAF:

METAR-TAF

Flughäfen :

Norwich International Airport

Norwich, England

Breite: 52-38N, Länge: 001-18E, Höhe: 14 m

Beobachtung

Neuester Wetterbericht von vor 10 Minuten, um 22:50 UTC
Wind 6 kt aus Ost/Südost, variierte zwischen Ost und Süd/Südost
Temperatur 8°C
Luftfeuchtigkeit 100%
Luftdruck 1028 hPa
Sichtweite: 5000 m
feuchter Dunst

METAR: EGSH 162250Z AUTO 12006KT 080V150 5000 BR OVC004/// 08/08 Q1028

Zeit: 23:00 (23:00 UTC)

Prognose

Neuester Wetterbericht von vor 34 Minuten, um 22:26 UTC
Gültige Prognose vom 16 um 22 UTC bis 16 um 24 UTC
Wind 5 kt aus Ost/Südost
Sichtweite: 2000 m
Durchbrochene Bewölkung in der Höhe von 100 ft
feuchter Dunst
Wahrscheinlichkeit 40% :
Zeitweise
vom 16 um 22 UTC bis 16 um 24 UTC
Sichtweite: 6000 m
Durchbrochene Bewölkung in der Höhe von 1000 ft

TAF: EGSH 162226Z 1622/1624 11005KT 2000 BR BKN001 PROB40 TEMPO 1622/1624 6000 NSW BKN010

Wetterbeobachtungen und Prognosen von mehr als 4000 Flughäfen (METAR und TAF Bericht).

Die verfügbaren Stationen werden durch gelbe und rote Markierungen auf der Karte dargestellt.

Führen Sie die Maus auf sie, um den Namen der Station zu sehen.

Darauf klicken, um die Beobachtung von Wetterbeobachtungen und Prognosen zu sehen.

Um die Karte zu ändern : klicken Sie auf den grünen Tasten mit einem schwarzen Kreuz Zum Vergrößern, auf den grünen Button mit einem Gedankenstrich zu verkleinern, oder auf die grünen Pfeile für benachbarte Karten.


METAR-TAF: